aviador You're here:

KTOL Decoded Metar

TOLEDO in OH, USA
Report Time2017-06-29 11:52:00
UTC Time2017-06-29 12:24:28
Flight Rules vfr VFR
Wind190° at 12 Gusting to 17 kt
W.Decomp.*RWY 16: 9.8 kt HW 6.9 kt RCW
RWY 25: 6.9 kt HW 9.8 kt LCW
W.Rank190° ranks 9
Current wind is above 190° avg. (6.4)
Visibility9999 m
Phenomena:N/A
Clouds:N/A
Expected CloudBase > 2,400 ft AGL from Temp-Dew spread
CeilingNone
Temp21°C (ISA +7)
Dew Point15°C (69% RH)
AAT18.3°C
QNH1011 hPa
Density Alt1,847 ft
Elevation689 ft
Report Wrong Elevation
Raw Report
METAR KTOL 291152Z 19012G17KT 150V220 10SM CLR 21/15 A2986 RMK AO2
SLP107 T02110150 10211 20200 58016 $=

Extra information for KTOL:More info

Metar Taf Metar & Taf Last 4 Metars F.Rules Stats Wind Profile Meteogram Temp Stats Airport Information Weather charts Add Link Nearby VenuesMetar ALERT Operation Metar Decoded Social comments

AIRNAV info for KTOL